sensor_id;sensor_type;location;lat;lon;timestamp;P1;durP1;ratioP1;P2;durP2;ratioP2
7158;SDS011;63175;52.374;13.132;2023-03-11T00:02:13;8.47;;;7.57;;
7158;SDS011;63175;52.374;13.132;2023-03-11T00:04:40;8.33;;;6.40;;
7158;SDS011;63175;52.374;13.132;2023-03-11T00:07:08;6.70;;;6.10;;
7158;SDS011;63175;52.374;13.132;2023-03-11T00:09:36;7.80;;;6.30;;
7158;SDS011;63175;52.374;13.132;2023-03-11T00:12:03;6.27;;;5.63;;
7158;SDS011;63175;52.374;13.132;2023-03-11T00:14:31;6.70;;;6.00;;
7158;SDS011;63175;52.374;13.132;2023-03-11T00:16:59;7.70;;;5.40;;
7158;SDS011;63175;52.374;13.132;2023-03-11T00:19:26;6.60;;;6.00;;
7158;SDS011;63175;52.374;13.132;2023-03-11T00:21:53;6.10;;;5.50;;
7158;SDS011;63175;52.374;13.132;2023-03-11T00:24:19;6.50;;;5.90;;
7158;SDS011;63175;52.374;13.132;2023-03-11T00:26:46;6.37;;;5.70;;
7158;SDS011;63175;52.374;13.132;2023-03-11T00:29:13;6.10;;;5.50;;
7158;SDS011;63175;52.374;13.132;2023-03-11T00:31:40;6.77;;;5.87;;
7158;SDS011;63175;52.374;13.132;2023-03-11T00:34:08;7.23;;;6.43;;
7158;SDS011;63175;52.374;13.132;2023-03-11T00:36:35;6.83;;;5.80;;
7158;SDS011;63175;52.374;13.132;2023-03-11T00:39:02;7.07;;;6.30;;
7158;SDS011;63175;52.374;13.132;2023-03-11T00:41:30;7.47;;;6.70;;
7158;SDS011;63175;52.374;13.132;2023-03-11T00:43:58;7.93;;;7.13;;
7158;SDS011;63175;52.374;13.132;2023-03-11T00:46:25;7.37;;;6.57;;
7158;SDS011;63175;52.374;13.132;2023-03-11T00:48:52;6.80;;;6.10;;
7158;SDS011;63175;52.374;13.132;2023-03-11T00:51:20;7.83;;;7.03;;
7158;SDS011;63175;52.374;13.132;2023-03-11T00:53:47;7.40;;;6.80;;
7158;SDS011;63175;52.374;13.132;2023-03-11T00:56:14;8.43;;;7.63;;
7158;SDS011;63175;52.374;13.132;2023-03-11T00:58:42;7.13;;;6.47;;
7158;SDS011;63175;52.374;13.132;2023-03-11T01:01:10;7.47;;;6.77;;
7158;SDS011;63175;52.374;13.132;2023-03-11T01:03:38;7.33;;;6.63;;
7158;SDS011;63175;52.374;13.132;2023-03-11T01:06:06;8.83;;;7.93;;
7158;SDS011;63175;52.374;13.132;2023-03-11T01:08:35;7.53;;;6.83;;
7158;SDS011;63175;52.374;13.132;2023-03-11T01:11:02;8.83;;;7.93;;
7158;SDS011;63175;52.374;13.132;2023-03-11T01:13:29;8.63;;;7.77;;
7158;SDS011;63175;52.374;13.132;2023-03-11T01:15:56;8.00;;;7.17;;
7158;SDS011;63175;52.374;13.132;2023-03-11T01:18:23;7.23;;;6.37;;
7158;SDS011;63175;52.374;13.132;2023-03-11T01:20:51;7.57;;;6.87;;
7158;SDS011;63175;52.374;13.132;2023-03-11T01:23:18;6.40;;;5.80;;
7158;SDS011;63175;52.374;13.132;2023-03-11T01:25:47;5.60;;;5.10;;
7158;SDS011;63175;52.374;13.132;2023-03-11T01:28:14;5.93;;;5.33;;
7158;SDS011;63175;52.374;13.132;2023-03-11T01:30:42;6.00;;;5.50;;
7158;SDS011;63175;52.374;13.132;2023-03-11T01:33:12;4.93;;;4.53;;
7158;SDS011;63175;52.374;13.132;2023-03-11T01:35:42;4.50;;;4.20;;
7158;SDS011;63175;52.374;13.132;2023-03-11T01:38:09;3.40;;;3.20;;
7158;SDS011;63175;52.374;13.132;2023-03-11T01:40:38;2.77;;;2.57;;
7158;SDS011;63175;52.374;13.132;2023-03-11T01:46:11;6.63;;;1.83;;
7158;SDS011;63175;52.374;13.132;2023-03-11T01:48:40;1.37;;;1.10;;
7158;SDS011;63175;52.374;13.132;2023-03-11T01:51:11;2.70;;;1.27;;
7158;SDS011;63175;52.374;13.132;2023-03-11T01:53:38;0.87;;;0.87;;
7158;SDS011;63175;52.374;13.132;2023-03-11T01:56:05;0.70;;;0.70;;
7158;SDS011;63175;52.374;13.132;2023-03-11T01:58:33;0.80;;;0.80;;
7158;SDS011;63175;52.374;13.132;2023-03-11T02:01:03;0.60;;;0.60;;
7158;SDS011;63175;52.374;13.132;2023-03-11T02:03:34;0.80;;;0.80;;
7158;SDS011;63175;52.374;13.132;2023-03-11T02:06:05;1.00;;;0.90;;
7158;SDS011;63175;52.374;13.132;2023-03-11T02:08:35;0.87;;;0.87;;
7158;SDS011;63175;52.374;13.132;2023-03-11T02:11:02;0.80;;;0.80;;
7158;SDS011;63175;52.374;13.132;2023-03-11T02:13:31;1.20;;;1.07;;
7158;SDS011;63175;52.374;13.132;2023-03-11T02:16:00;1.00;;;1.00;;
7158;SDS011;63175;52.374;13.132;2023-03-11T02:18:27;1.47;;;1.47;;
7158;SDS011;63175;52.374;13.132;2023-03-11T02:20:58;1.10;;;1.10;;
7158;SDS011;63175;52.374;13.132;2023-03-11T02:23:35;1.60;;;1.50;;
7158;SDS011;63175;52.374;13.132;2023-03-11T02:26:08;1.40;;;1.40;;
7158;SDS011;63175;52.374;13.132;2023-03-11T02:28:41;1.90;;;1.80;;
7158;SDS011;63175;52.374;13.132;2023-03-11T02:31:11;1.80;;;1.70;;
7158;SDS011;63175;52.374;13.132;2023-03-11T02:33:39;2.03;;;1.93;;
7158;SDS011;63175;52.374;13.132;2023-03-11T02:38:56;2.60;;;2.50;;
7158;SDS011;63175;52.374;13.132;2023-03-11T02:41:23;2.87;;;2.77;;
7158;SDS011;63175;52.374;13.132;2023-03-11T02:43:51;2.67;;;2.57;;
7158;SDS011;63175;52.374;13.132;2023-03-11T02:46:19;3.63;;;3.40;;
7158;SDS011;63175;52.374;13.132;2023-03-11T02:48:46;3.87;;;3.57;;
7158;SDS011;63175;52.374;13.132;2023-03-11T02:51:14;2.70;;;2.60;;
7158;SDS011;63175;52.374;13.132;2023-03-11T02:53:47;3.17;;;2.97;;
7158;SDS011;63175;52.374;13.132;2023-03-11T02:56:16;3.40;;;3.20;;
7158;SDS011;63175;52.374;13.132;2023-03-11T02:58:43;3.20;;;3.00;;
7158;SDS011;63175;52.374;13.132;2023-03-11T03:01:11;3.73;;;3.43;;
7158;SDS011;63175;52.374;13.132;2023-03-11T03:03:38;3.40;;;3.20;;
7158;SDS011;63175;52.374;13.132;2023-03-11T03:06:05;3.40;;;3.20;;
7158;SDS011;63175;52.374;13.132;2023-03-11T03:08:32;3.40;;;3.20;;
7158;SDS011;63175;52.374;13.132;2023-03-11T03:10:59;3.70;;;3.47;;
7158;SDS011;63175;52.374;13.132;2023-03-11T03:13:27;4.43;;;4.13;;
7158;SDS011;63175;52.374;13.132;2023-03-11T03:15:54;3.53;;;3.33;;
7158;SDS011;63175;52.374;13.132;2023-03-11T03:18:23;3.60;;;3.40;;
7158;SDS011;63175;52.374;13.132;2023-03-11T03:20:50;4.10;;;3.80;;
7158;SDS011;63175;52.374;13.132;2023-03-11T03:23:18;3.40;;;3.20;;
7158;SDS011;63175;52.374;13.132;2023-03-11T03:25:45;3.73;;;3.43;;
7158;SDS011;63175;52.374;13.132;2023-03-11T03:28:12;3.67;;;3.47;;
7158;SDS011;63175;52.374;13.132;2023-03-11T03:30:39;4.00;;;3.70;;
7158;SDS011;63175;52.374;13.132;2023-03-11T03:33:06;3.90;;;3.60;;
7158;SDS011;63175;52.374;13.132;2023-03-11T03:35:35;3.60;;;3.40;;
7158;SDS011;63175;52.374;13.132;2023-03-11T03:38:05;4.10;;;3.80;;
7158;SDS011;63175;52.374;13.132;2023-03-11T03:40:32;4.43;;;3.83;;
7158;SDS011;63175;52.374;13.132;2023-03-11T03:42:59;3.50;;;3.30;;
7158;SDS011;63175;52.374;13.132;2023-03-11T03:45:26;4.20;;;3.80;;
7158;SDS011;63175;52.374;13.132;2023-03-11T03:47:53;3.70;;;3.40;;
7158;SDS011;63175;52.374;13.132;2023-03-11T03:50:20;3.80;;;3.27;;
7158;SDS011;63175;52.374;13.132;2023-03-11T03:52:48;3.87;;;3.67;;
7158;SDS011;63175;52.374;13.132;2023-03-11T03:55:15;3.37;;;3.17;;
7158;SDS011;63175;52.374;13.132;2023-03-11T03:57:42;2.73;;;2.53;;
7158;SDS011;63175;52.374;13.132;2023-03-11T04:00:10;3.30;;;3.10;;
7158;SDS011;63175;52.374;13.132;2023-03-11T04:02:37;3.00;;;2.80;;
7158;SDS011;63175;52.374;13.132;2023-03-11T04:05:05;2.73;;;2.53;;
7158;SDS011;63175;52.374;13.132;2023-03-11T04:07:33;2.60;;;2.50;;
7158;SDS011;63175;52.374;13.132;2023-03-11T04:10:02;2.57;;;2.37;;
7158;SDS011;63175;52.374;13.132;2023-03-11T04:12:30;2.80;;;2.70;;
7158;SDS011;63175;52.374;13.132;2023-03-11T04:14:57;2.43;;;2.33;;
7158;SDS011;63175;52.374;13.132;2023-03-11T04:17:24;1.80;;;1.80;;
7158;SDS011;63175;52.374;13.132;2023-03-11T04:19:50;2.00;;;1.90;;
7158;SDS011;63175;52.374;13.132;2023-03-11T04:22:17;1.90;;;1.80;;
7158;SDS011;63175;52.374;13.132;2023-03-11T04:24:44;2.47;;;2.37;;
7158;SDS011;63175;52.374;13.132;2023-03-11T04:27:13;1.87;;;1.77;;
7158;SDS011;63175;52.374;13.132;2023-03-11T04:29:40;1.77;;;1.70;;
7158;SDS011;63175;52.374;13.132;2023-03-11T04:32:06;1.97;;;1.87;;
7158;SDS011;63175;52.374;13.132;2023-03-11T04:34:33;2.00;;;1.90;;
7158;SDS011;63175;52.374;13.132;2023-03-11T04:37:00;2.03;;;1.93;;
7158;SDS011;63175;52.374;13.132;2023-03-11T04:39:27;1.70;;;1.70;;
7158;SDS011;63175;52.374;13.132;2023-03-11T04:41:54;2.03;;;1.93;;
7158;SDS011;63175;52.374;13.132;2023-03-11T04:44:22;1.90;;;1.87;;
7158;SDS011;63175;52.374;13.132;2023-03-11T04:46:49;2.20;;;2.00;;
7158;SDS011;63175;52.374;13.132;2023-03-11T04:49:16;2.10;;;2.00;;
7158;SDS011;63175;52.374;13.132;2023-03-11T04:51:43;1.80;;;1.70;;
7158;SDS011;63175;52.374;13.132;2023-03-11T04:54:10;2.20;;;2.10;;
7158;SDS011;63175;52.374;13.132;2023-03-11T04:56:37;2.10;;;2.00;;
7158;SDS011;63175;52.374;13.132;2023-03-11T04:59:04;2.57;;;2.47;;
7158;SDS011;63175;52.374;13.132;2023-03-11T05:01:33;1.53;;;1.53;;
7158;SDS011;63175;52.374;13.132;2023-03-11T05:04:00;1.90;;;1.80;;
7158;SDS011;63175;52.374;13.132;2023-03-11T05:06:27;2.47;;;2.37;;
7158;SDS011;63175;52.374;13.132;2023-03-11T05:08:54;2.23;;;2.13;;
7158;SDS011;63175;52.374;13.132;2023-03-11T05:11:21;1.93;;;1.83;;
7158;SDS011;63175;52.374;13.132;2023-03-11T05:13:48;1.87;;;1.77;;
7158;SDS011;63175;52.374;13.132;2023-03-11T05:16:15;2.60;;;2.43;;
7158;SDS011;63175;52.374;13.132;2023-03-11T05:18:43;2.13;;;2.03;;
7158;SDS011;63175;52.374;13.132;2023-03-11T05:21:10;2.20;;;2.10;;
7158;SDS011;63175;52.374;13.132;2023-03-11T05:23:36;2.00;;;1.90;;
7158;SDS011;63175;52.374;13.132;2023-03-11T05:26:04;2.50;;;2.30;;
7158;SDS011;63175;52.374;13.132;2023-03-11T05:28:31;2.97;;;2.77;;
7158;SDS011;63175;52.374;13.132;2023-03-11T05:30:57;2.83;;;2.67;;
7158;SDS011;63175;52.374;13.132;2023-03-11T05:33:24;2.30;;;2.20;;
7158;SDS011;63175;52.374;13.132;2023-03-11T05:36:03;2.63;;;2.53;;
7158;SDS011;63175;52.374;13.132;2023-03-11T05:38:31;2.30;;;2.20;;
7158;SDS011;63175;52.374;13.132;2023-03-11T05:40:57;2.40;;;2.30;;
7158;SDS011;63175;52.374;13.132;2023-03-11T05:43:24;2.70;;;2.50;;
7158;SDS011;63175;52.374;13.132;2023-03-11T05:45:51;3.53;;;2.80;;
7158;SDS011;63175;52.374;13.132;2023-03-11T05:48:18;2.70;;;2.53;;
7158;SDS011;63175;52.374;13.132;2023-03-11T05:50:45;2.60;;;2.50;;
7158;SDS011;63175;52.374;13.132;2023-03-11T05:53:13;3.43;;;3.23;;
7158;SDS011;63175;52.374;13.132;2023-03-11T05:55:40;2.70;;;2.60;;
7158;SDS011;63175;52.374;13.132;2023-03-11T05:58:07;3.90;;;3.33;;
7158;SDS011;63175;52.374;13.132;2023-03-11T06:00:33;3.03;;;2.83;;
7158;SDS011;63175;52.374;13.132;2023-03-11T06:03:00;3.77;;;3.57;;
7158;SDS011;63175;52.374;13.132;2023-03-11T06:05:27;4.33;;;3.93;;
7158;SDS011;63175;52.374;13.132;2023-03-11T06:07:54;4.30;;;3.90;;
7158;SDS011;63175;52.374;13.132;2023-03-11T06:10:23;4.80;;;4.40;;
7158;SDS011;63175;52.374;13.132;2023-03-11T06:12:49;7.80;;;4.73;;
7158;SDS011;63175;52.374;13.132;2023-03-11T06:15:16;5.17;;;4.67;;
7158;SDS011;63175;52.374;13.132;2023-03-11T06:17:43;4.43;;;4.07;;
7158;SDS011;63175;52.374;13.132;2023-03-11T06:20:10;5.27;;;4.87;;
7158;SDS011;63175;52.374;13.132;2023-03-11T06:22:37;4.40;;;4.10;;
7158;SDS011;63175;52.374;13.132;2023-03-11T06:25:04;4.73;;;4.33;;
7158;SDS011;63175;52.374;13.132;2023-03-11T06:27:33;4.90;;;4.40;;
7158;SDS011;63175;52.374;13.132;2023-03-11T06:30:00;5.00;;;4.37;;
7158;SDS011;63175;52.374;13.132;2023-03-11T06:32:27;4.57;;;4.17;;
7158;SDS011;63175;52.374;13.132;2023-03-11T06:34:54;4.80;;;4.40;;
7158;SDS011;63175;52.374;13.132;2023-03-11T06:37:21;5.37;;;4.97;;
7158;SDS011;63175;52.374;13.132;2023-03-11T06:39:50;5.03;;;4.57;;
7158;SDS011;63175;52.374;13.132;2023-03-11T06:42:18;5.63;;;5.13;;
7158;SDS011;63175;52.374;13.132;2023-03-11T06:44:47;5.53;;;5.07;;
7158;SDS011;63175;52.374;13.132;2023-03-11T06:47:14;5.40;;;4.90;;
7158;SDS011;63175;52.374;13.132;2023-03-11T06:49:40;4.80;;;4.40;;
7158;SDS011;63175;52.374;13.132;2023-03-11T06:52:08;7.27;;;4.80;;
7158;SDS011;63175;52.374;13.132;2023-03-11T06:54:35;5.97;;;5.03;;
7158;SDS011;63175;52.374;13.132;2023-03-11T06:57:02;4.83;;;4.43;;
7158;SDS011;63175;52.374;13.132;2023-03-11T06:59:31;5.70;;;4.43;;
7158;SDS011;63175;52.374;13.132;2023-03-11T07:01:59;5.87;;;5.23;;
7158;SDS011;63175;52.374;13.132;2023-03-11T07:04:28;5.70;;;5.17;;
7158;SDS011;63175;52.374;13.132;2023-03-11T07:06:55;5.60;;;5.00;;
7158;SDS011;63175;52.374;13.132;2023-03-11T07:09:22;5.90;;;5.07;;
7158;SDS011;63175;52.374;13.132;2023-03-11T07:11:49;5.30;;;4.90;;
7158;SDS011;63175;52.374;13.132;2023-03-11T07:14:17;5.67;;;5.10;;
7158;SDS011;63175;52.374;13.132;2023-03-11T07:16:44;5.33;;;4.93;;
7158;SDS011;63175;52.374;13.132;2023-03-11T07:19:13;5.20;;;4.80;;
7158;SDS011;63175;52.374;13.132;2023-03-11T07:21:40;6.10;;;5.50;;
7158;SDS011;63175;52.374;13.132;2023-03-11T07:24:07;5.77;;;5.20;;
7158;SDS011;63175;52.374;13.132;2023-03-11T07:26:37;5.90;;;5.10;;
7158;SDS011;63175;52.374;13.132;2023-03-11T07:29:04;5.37;;;4.73;;
7158;SDS011;63175;52.374;13.132;2023-03-11T07:31:31;5.70;;;5.17;;
7158;SDS011;63175;52.374;13.132;2023-03-11T07:34:00;7.10;;;5.93;;
7158;SDS011;63175;52.374;13.132;2023-03-11T07:36:30;6.87;;;6.23;;
7158;SDS011;63175;52.374;13.132;2023-03-11T07:38:58;5.60;;;5.10;;
7158;SDS011;63175;52.374;13.132;2023-03-11T07:41:28;7.33;;;6.60;;
7158;SDS011;63175;52.374;13.132;2023-03-11T07:43:56;5.83;;;5.23;;
7158;SDS011;63175;52.374;13.132;2023-03-11T07:46:24;6.90;;;5.63;;
7158;SDS011;63175;52.374;13.132;2023-03-11T07:48:52;5.93;;;5.43;;
7158;SDS011;63175;52.374;13.132;2023-03-11T07:51:20;6.70;;;5.07;;
7158;SDS011;63175;52.374;13.132;2023-03-11T07:53:50;5.30;;;4.90;;
7158;SDS011;63175;52.374;13.132;2023-03-11T07:56:18;6.73;;;5.43;;
7158;SDS011;63175;52.374;13.132;2023-03-11T07:58:46;6.30;;;5.70;;
7158;SDS011;63175;52.374;13.132;2023-03-11T08:01:14;5.73;;;5.27;;
7158;SDS011;63175;52.374;13.132;2023-03-11T08:03:42;6.47;;;5.60;;
7158;SDS011;63175;52.374;13.132;2023-03-11T08:06:11;5.70;;;5.23;;
7158;SDS011;63175;52.374;13.132;2023-03-11T08:08:39;5.73;;;4.87;;
7158;SDS011;63175;52.374;13.132;2023-03-11T08:11:07;6.00;;;5.33;;
7158;SDS011;63175;52.374;13.132;2023-03-11T08:13:34;7.53;;;5.70;;
7158;SDS011;63175;52.374;13.132;2023-03-11T08:16:02;5.57;;;5.13;;
7158;SDS011;63175;52.374;13.132;2023-03-11T08:18:29;5.93;;;4.50;;
7158;SDS011;63175;52.374;13.132;2023-03-11T08:20:57;5.60;;;5.10;;
7158;SDS011;63175;52.374;13.132;2023-03-11T08:23:24;4.73;;;4.30;;
7158;SDS011;63175;52.374;13.132;2023-03-11T08:25:51;5.20;;;4.70;;
7158;SDS011;63175;52.374;13.132;2023-03-11T08:28:19;4.97;;;4.57;;
7158;SDS011;63175;52.374;13.132;2023-03-11T08:30:46;5.20;;;4.67;;
7158;SDS011;63175;52.374;13.132;2023-03-11T08:33:13;5.57;;;5.07;;
7158;SDS011;63175;52.374;13.132;2023-03-11T08:35:40;6.17;;;5.33;;
7158;SDS011;63175;52.374;13.132;2023-03-11T08:38:06;5.80;;;5.33;;
7158;SDS011;63175;52.374;13.132;2023-03-11T08:40:33;4.47;;;4.17;;
7158;SDS011;63175;52.374;13.132;2023-03-11T08:43:00;4.23;;;4.00;;
7158;SDS011;63175;52.374;13.132;2023-03-11T08:45:29;5.10;;;4.60;;
7158;SDS011;63175;52.374;13.132;2023-03-11T08:47:55;5.40;;;4.33;;
7158;SDS011;63175;52.374;13.132;2023-03-11T08:50:22;4.30;;;4.00;;
7158;SDS011;63175;52.374;13.132;2023-03-11T08:52:49;5.77;;;5.30;;
7158;SDS011;63175;52.374;13.132;2023-03-11T08:55:16;5.80;;;5.27;;
7158;SDS011;63175;52.374;13.132;2023-03-11T08:57:49;5.17;;;4.77;;
7158;SDS011;63175;52.374;13.132;2023-03-11T09:00:16;5.83;;;5.33;;
7158;SDS011;63175;52.374;13.132;2023-03-11T09:02:45;7.03;;;6.13;;
7158;SDS011;63175;52.374;13.132;2023-03-11T09:05:12;6.43;;;5.87;;
7158;SDS011;63175;52.374;13.132;2023-03-11T09:07:40;5.80;;;5.30;;
7158;SDS011;63175;52.374;13.132;2023-03-11T09:10:08;6.30;;;5.70;;
7158;SDS011;63175;52.374;13.132;2023-03-11T09:12:37;6.57;;;5.97;;
7158;SDS011;63175;52.374;13.132;2023-03-11T09:15:04;6.37;;;5.73;;
7158;SDS011;63175;52.374;13.132;2023-03-11T09:17:31;5.63;;;5.20;;
7158;SDS011;63175;52.374;13.132;2023-03-11T09:20:00;10.30;;;6.07;;
7158;SDS011;63175;52.374;13.132;2023-03-11T09:22:27;6.23;;;5.63;;
7158;SDS011;63175;52.374;13.132;2023-03-11T09:24:55;5.53;;;5.13;;
7158;SDS011;63175;52.374;13.132;2023-03-11T09:27:22;6.83;;;6.23;;
7158;SDS011;63175;52.374;13.132;2023-03-11T09:29:49;7.57;;;6.77;;
7158;SDS011;63175;52.374;13.132;2023-03-11T09:32:16;6.27;;;5.70;;
7158;SDS011;63175;52.374;13.132;2023-03-11T09:34:42;6.30;;;5.80;;
7158;SDS011;63175;52.374;13.132;2023-03-11T09:37:11;6.37;;;5.87;;
7158;SDS011;63175;52.374;13.132;2023-03-11T09:39:39;5.70;;;5.30;;
7158;SDS011;63175;52.374;13.132;2023-03-11T09:42:09;6.33;;;5.80;;
7158;SDS011;63175;52.374;13.132;2023-03-11T09:44:44;7.53;;;6.70;;
7158;SDS011;63175;52.374;13.132;2023-03-11T09:47:39;6.10;;;5.50;;
7158;SDS011;63175;52.374;13.132;2023-03-11T09:50:15;6.80;;;6.20;;
7158;SDS011;63175;52.374;13.132;2023-03-11T09:52:53;7.80;;;7.00;;
7158;SDS011;63175;52.374;13.132;2023-03-11T09:55:30;7.07;;;6.37;;
7158;SDS011;63175;52.374;13.132;2023-03-11T09:58:02;5.97;;;5.57;;
7158;SDS011;63175;52.374;13.132;2023-03-11T10:00:34;6.80;;;6.20;;
7158;SDS011;63175;52.374;13.132;2023-03-11T10:03:01;6.13;;;5.53;;
7158;SDS011;63175;52.374;13.132;2023-03-11T10:05:31;6.70;;;6.07;;
7158;SDS011;63175;52.374;13.132;2023-03-11T10:08:01;7.07;;;6.37;;
7158;SDS011;63175;52.374;13.132;2023-03-11T10:10:37;11.90;;;6.50;;
7158;SDS011;63175;52.374;13.132;2023-03-11T10:13:12;7.73;;;6.87;;
7158;SDS011;63175;52.374;13.132;2023-03-11T10:15:45;7.37;;;6.67;;
7158;SDS011;63175;52.374;13.132;2023-03-11T10:18:31;7.60;;;6.90;;
7158;SDS011;63175;52.374;13.132;2023-03-11T10:21:14;7.40;;;6.70;;
7158;SDS011;63175;52.374;13.132;2023-03-11T10:23:53;7.80;;;7.10;;
7158;SDS011;63175;52.374;13.132;2023-03-11T10:26:28;10.03;;;8.30;;
7158;SDS011;63175;52.374;13.132;2023-03-11T10:29:01;7.27;;;6.57;;
7158;SDS011;63175;52.374;13.132;2023-03-11T10:31:39;8.30;;;7.57;;
7158;SDS011;63175;52.374;13.132;2023-03-11T10:34:12;8.90;;;7.93;;
7158;SDS011;63175;52.374;13.132;2023-03-11T10:36:45;8.60;;;7.80;;
7158;SDS011;63175;52.374;13.132;2023-03-11T10:39:20;7.03;;;6.33;;
7158;SDS011;63175;52.374;13.132;2023-03-11T10:41:49;8.80;;;8.00;;
7158;SDS011;63175;52.374;13.132;2023-03-11T10:44:19;7.80;;;7.10;;
7158;SDS011;63175;52.374;13.132;2023-03-11T10:46:51;9.30;;;7.80;;
7158;SDS011;63175;52.374;13.132;2023-03-11T10:49:18;8.23;;;7.43;;
7158;SDS011;63175;52.374;13.132;2023-03-11T10:51:45;8.10;;;7.40;;
7158;SDS011;63175;52.374;13.132;2023-03-11T10:54:21;8.30;;;7.50;;
7158;SDS011;63175;52.374;13.132;2023-03-11T10:56:53;9.97;;;8.97;;
7158;SDS011;63175;52.374;13.132;2023-03-11T10:59:22;8.83;;;7.93;;
7158;SDS011;63175;52.374;13.132;2023-03-11T11:01:54;9.13;;;8.17;;
7158;SDS011;63175;52.374;13.132;2023-03-11T11:04:25;9.77;;;8.77;;
7158;SDS011;63175;52.374;13.132;2023-03-11T11:07:06;8.53;;;7.73;;
7158;SDS011;63175;52.374;13.132;2023-03-11T11:09:48;9.00;;;8.10;;
7158;SDS011;63175;52.374;13.132;2023-03-11T11:12:53;9.23;;;8.10;;
7158;SDS011;63175;52.374;13.132;2023-03-11T11:15:21;8.67;;;7.87;;
7158;SDS011;63175;52.374;13.132;2023-03-11T11:17:50;9.60;;;7.83;;
7158;SDS011;63175;52.374;13.132;2023-03-11T11:20:19;6.17;;;5.57;;
7158;SDS011;63175;52.374;13.132;2023-03-11T11:22:50;6.53;;;5.37;;
7158;SDS011;63175;52.374;13.132;2023-03-11T11:25:27;6.80;;;6.00;;
7158;SDS011;63175;52.374;13.132;2023-03-11T11:27:56;6.53;;;5.87;;
7158;SDS011;63175;52.374;13.132;2023-03-11T11:30:24;7.17;;;6.53;;
7158;SDS011;63175;52.374;13.132;2023-03-11T11:32:52;7.00;;;6.30;;
7158;SDS011;63175;52.374;13.132;2023-03-11T11:35:20;6.20;;;5.70;;
7158;SDS011;63175;52.374;13.132;2023-03-11T11:37:49;7.50;;;6.20;;
7158;SDS011;63175;52.374;13.132;2023-03-11T11:40:23;7.00;;;5.70;;
7158;SDS011;63175;52.374;13.132;2023-03-11T11:42:54;5.93;;;5.47;;
7158;SDS011;63175;52.374;13.132;2023-03-11T11:45:33;5.90;;;5.40;;
7158;SDS011;63175;52.374;13.132;2023-03-11T11:48:04;6.90;;;6.20;;
7158;SDS011;63175;52.374;13.132;2023-03-11T11:50:39;6.40;;;5.80;;
7158;SDS011;63175;52.374;13.132;2023-03-11T11:53:12;6.50;;;5.90;;
7158;SDS011;63175;52.374;13.132;2023-03-11T11:55:47;8.10;;;6.60;;
7158;SDS011;63175;52.374;13.132;2023-03-11T11:58:18;6.83;;;6.13;;
7158;SDS011;63175;52.374;13.132;2023-03-11T12:00:49;7.33;;;6.63;;
7158;SDS011;63175;52.374;13.132;2023-03-11T12:03:38;6.73;;;6.13;;
7158;SDS011;63175;52.374;13.132;2023-03-11T12:06:20;9.10;;;6.80;;
7158;SDS011;63175;52.374;13.132;2023-03-11T12:08:54;10.23;;;7.37;;
7158;SDS011;63175;52.374;13.132;2023-03-11T12:11:32;7.23;;;6.63;;
7158;SDS011;63175;52.374;13.132;2023-03-11T12:14:06;6.80;;;6.20;;
7158;SDS011;63175;52.374;13.132;2023-03-11T12:16:41;6.63;;;6.03;;
7158;SDS011;63175;52.374;13.132;2023-03-11T12:19:16;6.00;;;5.50;;
7158;SDS011;63175;52.374;13.132;2023-03-11T12:21:58;6.57;;;4.63;;
7158;SDS011;63175;52.374;13.132;2023-03-11T12:24:50;4.40;;;4.00;;
7158;SDS011;63175;52.374;13.132;2023-03-11T12:27:28;5.53;;;5.13;;
7158;SDS011;63175;52.374;13.132;2023-03-11T12:30:00;4.33;;;3.97;;
7158;SDS011;63175;52.374;13.132;2023-03-11T12:32:30;5.73;;;4.27;;
7158;SDS011;63175;52.374;13.132;2023-03-11T12:35:02;4.80;;;4.40;;
7158;SDS011;63175;52.374;13.132;2023-03-11T12:37:34;4.33;;;3.93;;
7158;SDS011;63175;52.374;13.132;2023-03-11T12:43:03;4.30;;;4.00;;
7158;SDS011;63175;52.374;13.132;2023-03-11T12:45:46;5.10;;;4.60;;
7158;SDS011;63175;52.374;13.132;2023-03-11T12:48:24;5.23;;;4.80;;
7158;SDS011;63175;52.374;13.132;2023-03-11T12:50:58;5.53;;;4.20;;
7158;SDS011;63175;52.374;13.132;2023-03-11T12:53:41;5.23;;;4.60;;
7158;SDS011;63175;52.374;13.132;2023-03-11T12:56:12;4.17;;;3.87;;
7158;SDS011;63175;52.374;13.132;2023-03-11T12:58:54;6.27;;;5.40;;
7158;SDS011;63175;52.374;13.132;2023-03-11T13:01:49;4.67;;;4.27;;
7158;SDS011;63175;52.374;13.132;2023-03-11T13:04:30;5.40;;;4.90;;
7158;SDS011;63175;52.374;13.132;2023-03-11T13:10:02;4.90;;;4.50;;
7158;SDS011;63175;52.374;13.132;2023-03-11T13:12:37;4.37;;;3.97;;
7158;SDS011;63175;52.374;13.132;2023-03-11T13:17:59;5.80;;;5.07;;
7158;SDS011;63175;52.374;13.132;2023-03-11T13:20:42;7.27;;;5.03;;
7158;SDS011;63175;52.374;13.132;2023-03-11T13:23:25;6.10;;;5.47;;
7158;SDS011;63175;52.374;13.132;2023-03-11T13:28:56;5.53;;;4.90;;
7158;SDS011;63175;52.374;13.132;2023-03-11T13:31:51;7.10;;;6.40;;
7158;SDS011;63175;52.374;13.132;2023-03-11T13:34:40;6.80;;;6.10;;
7158;SDS011;63175;52.374;13.132;2023-03-11T13:37:15;5.50;;;5.00;;
7158;SDS011;63175;52.374;13.132;2023-03-11T13:39:52;5.73;;;5.17;;
7158;SDS011;63175;52.374;13.132;2023-03-11T13:42:39;4.93;;;4.50;;
7158;SDS011;63175;52.374;13.132;2023-03-11T13:45:22;6.03;;;5.23;;
7158;SDS011;63175;52.374;13.132;2023-03-11T13:47:55;5.80;;;5.30;;
7158;SDS011;63175;52.374;13.132;2023-03-11T13:50:25;10.20;;;5.30;;
7158;SDS011;63175;52.374;13.132;2023-03-11T13:52:56;7.47;;;4.80;;
7158;SDS011;63175;52.374;13.132;2023-03-11T13:55:27;6.37;;;5.73;;
7158;SDS011;63175;52.374;13.132;2023-03-11T13:57:59;5.47;;;4.80;;
7158;SDS011;63175;52.374;13.132;2023-03-11T14:00:28;5.37;;;4.87;;
7158;SDS011;63175;52.374;13.132;2023-03-11T14:03:00;4.63;;;4.23;;
7158;SDS011;63175;52.374;13.132;2023-03-11T14:05:29;5.73;;;5.17;;
7158;SDS011;63175;52.374;13.132;2023-03-11T14:08:10;5.70;;;4.90;;
7158;SDS011;63175;52.374;13.132;2023-03-11T14:10:37;5.63;;;5.03;;
7158;SDS011;63175;52.374;13.132;2023-03-11T14:13:05;4.47;;;4.13;;
7158;SDS011;63175;52.374;13.132;2023-03-11T14:15:45;4.90;;;4.40;;
7158;SDS011;63175;52.374;13.132;2023-03-11T14:18:35;4.90;;;4.50;;
7158;SDS011;63175;52.374;13.132;2023-03-11T14:21:04;4.20;;;3.80;;
7158;SDS011;63175;52.374;13.132;2023-03-11T14:23:38;3.87;;;3.47;;
7158;SDS011;63175;52.374;13.132;2023-03-11T14:26:07;4.40;;;3.40;;
7158;SDS011;63175;52.374;13.132;2023-03-11T14:28:39;3.10;;;2.90;;
7158;SDS011;63175;52.374;13.132;2023-03-11T14:31:18;2.90;;;2.70;;
7158;SDS011;63175;52.374;13.132;2023-03-11T14:33:54;3.30;;;3.07;;
7158;SDS011;63175;52.374;13.132;2023-03-11T14:36:22;3.80;;;3.40;;
7158;SDS011;63175;52.374;13.132;2023-03-11T14:38:49;3.60;;;3.30;;
7158;SDS011;63175;52.374;13.132;2023-03-11T14:41:16;3.40;;;3.10;;
7158;SDS011;63175;52.374;13.132;2023-03-11T14:43:44;3.43;;;3.00;;
7158;SDS011;63175;52.374;13.132;2023-03-11T14:46:16;3.50;;;3.20;;
7158;SDS011;63175;52.374;13.132;2023-03-11T14:48:46;3.43;;;3.13;;
7158;SDS011;63175;52.374;13.132;2023-03-11T14:51:17;3.23;;;3.03;;
7158;SDS011;63175;52.374;13.132;2023-03-11T14:53:50;3.17;;;2.87;;
7158;SDS011;63175;52.374;13.132;2023-03-11T14:56:24;4.67;;;3.27;;
7158;SDS011;63175;52.374;13.132;2023-03-11T14:58:53;3.80;;;3.40;;
7158;SDS011;63175;52.374;13.132;2023-03-11T15:01:30;5.70;;;2.90;;
7158;SDS011;63175;52.374;13.132;2023-03-11T15:04:03;3.20;;;2.97;;
7158;SDS011;63175;52.374;13.132;2023-03-11T15:06:36;3.30;;;3.00;;
7158;SDS011;63175;52.374;13.132;2023-03-11T15:09:05;3.07;;;2.80;;
7158;SDS011;63175;52.374;13.132;2023-03-11T15:11:42;3.03;;;2.57;;
7158;SDS011;63175;52.374;13.132;2023-03-11T15:17:07;3.43;;;2.77;;
7158;SDS011;63175;52.374;13.132;2023-03-11T15:19:35;3.07;;;2.77;;
7158;SDS011;63175;52.374;13.132;2023-03-11T15:22:06;2.57;;;2.37;;
7158;SDS011;63175;52.374;13.132;2023-03-11T15:24:49;3.10;;;2.40;;
7158;SDS011;63175;52.374;13.132;2023-03-11T15:27:21;2.33;;;2.10;;